sensor_id;sensor_type;location;lat;lon;timestamp;P1;durP1;ratioP1;P2;durP2;ratioP2
31386;SDS011;69978;50.096;8.448;2024-01-30T00:00:14;12.77;;;4.95;;
31386;SDS011;69978;50.096;8.448;2024-01-30T00:02:40;14.23;;;5.25;;
31386;SDS011;69978;50.096;8.448;2024-01-30T00:05:08;12.05;;;5.25;;
31386;SDS011;69978;50.096;8.448;2024-01-30T00:07:33;15.82;;;5.00;;
31386;SDS011;69978;50.096;8.448;2024-01-30T00:09:59;16.25;;;4.85;;
31386;SDS011;69978;50.096;8.448;2024-01-30T00:12:24;11.15;;;4.82;;
31386;SDS011;69978;50.096;8.448;2024-01-30T00:14:51;15.27;;;5.68;;
31386;SDS011;69978;50.096;8.448;2024-01-30T00:17:17;10.55;;;4.85;;
31386;SDS011;69978;50.096;8.448;2024-01-30T00:19:44;16.10;;;5.57;;
31386;SDS011;69978;50.096;8.448;2024-01-30T00:22:09;15.60;;;5.05;;
31386;SDS011;69978;50.096;8.448;2024-01-30T00:24:35;14.23;;;5.00;;
31386;SDS011;69978;50.096;8.448;2024-01-30T00:27:01;14.73;;;5.00;;
31386;SDS011;69978;50.096;8.448;2024-01-30T00:29:26;14.95;;;5.32;;
31386;SDS011;69978;50.096;8.448;2024-01-30T00:31:55;14.70;;;4.70;;
31386;SDS011;69978;50.096;8.448;2024-01-30T00:34:21;19.05;;;6.05;;
31386;SDS011;69978;50.096;8.448;2024-01-30T00:36:46;17.92;;;5.80;;
31386;SDS011;69978;50.096;8.448;2024-01-30T00:39:12;16.52;;;5.82;;
31386;SDS011;69978;50.096;8.448;2024-01-30T00:41:40;16.83;;;6.07;;
31386;SDS011;69978;50.096;8.448;2024-01-30T00:44:06;19.50;;;5.80;;
31386;SDS011;69978;50.096;8.448;2024-01-30T00:46:31;20.90;;;6.07;;
31386;SDS011;69978;50.096;8.448;2024-01-30T00:48:57;21.50;;;7.38;;
31386;SDS011;69978;50.096;8.448;2024-01-30T00:51:23;20.90;;;6.97;;
31386;SDS011;69978;50.096;8.448;2024-01-30T00:53:48;21.63;;;7.00;;
31386;SDS011;69978;50.096;8.448;2024-01-30T00:56:14;17.55;;;6.28;;
31386;SDS011;69978;50.096;8.448;2024-01-30T00:58:43;18.38;;;6.18;;
31386;SDS011;69978;50.096;8.448;2024-01-30T01:01:08;16.33;;;5.57;;
31386;SDS011;69978;50.096;8.448;2024-01-30T01:03:34;15.52;;;5.63;;
31386;SDS011;69978;50.096;8.448;2024-01-30T01:06:00;19.65;;;6.30;;
31386;SDS011;69978;50.096;8.448;2024-01-30T01:08:25;13.10;;;5.35;;
31386;SDS011;69978;50.096;8.448;2024-01-30T01:10:51;12.32;;;5.10;;
31386;SDS011;69978;50.096;8.448;2024-01-30T01:13:17;14.23;;;5.97;;
31386;SDS011;69978;50.096;8.448;2024-01-30T01:15:43;13.48;;;5.47;;
31386;SDS011;69978;50.096;8.448;2024-01-30T01:18:08;13.18;;;5.15;;
31386;SDS011;69978;50.096;8.448;2024-01-30T01:20:34;15.98;;;5.45;;
31386;SDS011;69978;50.096;8.448;2024-01-30T01:22:59;12.02;;;5.25;;
31386;SDS011;69978;50.096;8.448;2024-01-30T01:25:25;13.75;;;4.38;;
31386;SDS011;69978;50.096;8.448;2024-01-30T01:27:50;15.43;;;4.95;;
31386;SDS011;69978;50.096;8.448;2024-01-30T01:30:17;12.10;;;4.68;;
31386;SDS011;69978;50.096;8.448;2024-01-30T01:32:50;13.77;;;5.25;;
31386;SDS011;69978;50.096;8.448;2024-01-30T01:35:23;11.07;;;4.88;;
31386;SDS011;69978;50.096;8.448;2024-01-30T01:37:52;12.20;;;4.80;;
31386;SDS011;69978;50.096;8.448;2024-01-30T01:40:25;12.95;;;5.13;;
31386;SDS011;69978;50.096;8.448;2024-01-30T01:42:51;12.68;;;4.93;;
31386;SDS011;69978;50.096;8.448;2024-01-30T01:45:18;14.48;;;5.68;;
31386;SDS011;69978;50.096;8.448;2024-01-30T01:47:45;10.77;;;4.78;;
31386;SDS011;69978;50.096;8.448;2024-01-30T01:50:13;13.18;;;5.05;;
31386;SDS011;69978;50.096;8.448;2024-01-30T01:52:40;14.43;;;5.35;;
31386;SDS011;69978;50.096;8.448;2024-01-30T01:55:06;15.15;;;5.32;;
31386;SDS011;69978;50.096;8.448;2024-01-30T01:57:33;12.93;;;4.90;;
31386;SDS011;69978;50.096;8.448;2024-01-30T02:00:00;15.93;;;5.85;;
31386;SDS011;69978;50.096;8.448;2024-01-30T02:02:26;14.70;;;5.22;;
31386;SDS011;69978;50.096;8.448;2024-01-30T02:04:56;11.27;;;5.07;;
31386;SDS011;69978;50.096;8.448;2024-01-30T02:07:23;11.38;;;4.65;;
31386;SDS011;69978;50.096;8.448;2024-01-30T02:09:49;13.93;;;5.18;;
31386;SDS011;69978;50.096;8.448;2024-01-30T02:12:14;19.77;;;5.90;;
31386;SDS011;69978;50.096;8.448;2024-01-30T02:14:46;17.58;;;5.80;;
31386;SDS011;69978;50.096;8.448;2024-01-30T02:17:13;13.57;;;4.85;;
31386;SDS011;69978;50.096;8.448;2024-01-30T02:19:39;13.65;;;5.13;;
31386;SDS011;69978;50.096;8.448;2024-01-30T02:22:05;13.88;;;4.68;;
31386;SDS011;69978;50.096;8.448;2024-01-30T02:24:32;15.02;;;4.90;;
31386;SDS011;69978;50.096;8.448;2024-01-30T02:26:57;12.43;;;4.55;;
31386;SDS011;69978;50.096;8.448;2024-01-30T02:29:23;12.30;;;5.05;;
31386;SDS011;69978;50.096;8.448;2024-01-30T02:31:49;14.52;;;5.57;;
31386;SDS011;69978;50.096;8.448;2024-01-30T02:34:14;17.90;;;5.28;;
31386;SDS011;69978;50.096;8.448;2024-01-30T02:36:43;12.73;;;5.00;;
31386;SDS011;69978;50.096;8.448;2024-01-30T02:39:09;12.15;;;5.03;;
31386;SDS011;69978;50.096;8.448;2024-01-30T02:41:35;18.98;;;5.03;;
31386;SDS011;69978;50.096;8.448;2024-01-30T02:44:01;12.40;;;4.72;;
31386;SDS011;69978;50.096;8.448;2024-01-30T02:46:28;10.35;;;4.65;;
31386;SDS011;69978;50.096;8.448;2024-01-30T02:48:53;12.55;;;4.90;;
31386;SDS011;69978;50.096;8.448;2024-01-30T02:51:19;13.70;;;4.80;;
31386;SDS011;69978;50.096;8.448;2024-01-30T02:53:44;15.68;;;5.13;;
31386;SDS011;69978;50.096;8.448;2024-01-30T02:56:10;15.98;;;5.97;;
31386;SDS011;69978;50.096;8.448;2024-01-30T02:58:37;13.68;;;4.78;;
31386;SDS011;69978;50.096;8.448;2024-01-30T03:01:02;14.60;;;4.95;;
31386;SDS011;69978;50.096;8.448;2024-01-30T03:03:28;13.10;;;4.72;;
31386;SDS011;69978;50.096;8.448;2024-01-30T03:05:54;13.55;;;4.80;;
31386;SDS011;69978;50.096;8.448;2024-01-30T03:08:19;18.20;;;5.40;;
31386;SDS011;69978;50.096;8.448;2024-01-30T03:10:46;13.25;;;5.57;;
31386;SDS011;69978;50.096;8.448;2024-01-30T03:13:11;13.88;;;5.03;;
31386;SDS011;69978;50.096;8.448;2024-01-30T03:15:37;15.75;;;5.32;;
31386;SDS011;69978;50.096;8.448;2024-01-30T03:18:03;11.25;;;4.75;;
31386;SDS011;69978;50.096;8.448;2024-01-30T03:20:29;12.18;;;5.20;;
31386;SDS011;69978;50.096;8.448;2024-01-30T03:22:55;15.18;;;5.13;;
31386;SDS011;69978;50.096;8.448;2024-01-30T03:25:21;15.25;;;5.18;;
31386;SDS011;69978;50.096;8.448;2024-01-30T03:27:46;14.20;;;5.18;;
31386;SDS011;69978;50.096;8.448;2024-01-30T03:30:12;14.88;;;5.22;;
31386;SDS011;69978;50.096;8.448;2024-01-30T03:32:38;16.33;;;5.70;;
31386;SDS011;69978;50.096;8.448;2024-01-30T03:35:03;13.63;;;4.80;;
31386;SDS011;69978;50.096;8.448;2024-01-30T03:37:29;15.77;;;5.55;;
31386;SDS011;69978;50.096;8.448;2024-01-30T03:39:55;12.30;;;5.25;;
31386;SDS011;69978;50.096;8.448;2024-01-30T03:42:21;13.32;;;5.50;;
31386;SDS011;69978;50.096;8.448;2024-01-30T03:44:47;16.60;;;5.88;;
31386;SDS011;69978;50.096;8.448;2024-01-30T03:47:13;15.00;;;5.05;;
31386;SDS011;69978;50.096;8.448;2024-01-30T03:49:39;12.77;;;5.60;;
31386;SDS011;69978;50.096;8.448;2024-01-30T03:52:05;15.02;;;5.32;;
31386;SDS011;69978;50.096;8.448;2024-01-30T03:54:30;14.98;;;6.00;;
31386;SDS011;69978;50.096;8.448;2024-01-30T03:56:56;14.30;;;5.55;;
31386;SDS011;69978;50.096;8.448;2024-01-30T03:59:22;14.80;;;5.45;;
31386;SDS011;69978;50.096;8.448;2024-01-30T04:01:52;13.73;;;5.75;;
31386;SDS011;69978;50.096;8.448;2024-01-30T04:04:17;16.73;;;5.55;;
31386;SDS011;69978;50.096;8.448;2024-01-30T04:06:44;15.93;;;5.57;;
31386;SDS011;69978;50.096;8.448;2024-01-30T04:09:10;14.68;;;5.18;;
31386;SDS011;69978;50.096;8.448;2024-01-30T04:11:36;15.82;;;5.47;;
31386;SDS011;69978;50.096;8.448;2024-01-30T04:14:02;15.73;;;5.18;;
31386;SDS011;69978;50.096;8.448;2024-01-30T04:16:27;17.08;;;5.40;;
31386;SDS011;69978;50.096;8.448;2024-01-30T04:18:53;17.55;;;5.60;;
31386;SDS011;69978;50.096;8.448;2024-01-30T04:21:20;17.15;;;5.13;;
31386;SDS011;69978;50.096;8.448;2024-01-30T04:23:46;15.38;;;5.40;;
31386;SDS011;69978;50.096;8.448;2024-01-30T04:26:12;18.00;;;5.30;;
31386;SDS011;69978;50.096;8.448;2024-01-30T04:28:37;14.18;;;5.55;;
31386;SDS011;69978;50.096;8.448;2024-01-30T04:31:03;14.02;;;5.13;;
31386;SDS011;69978;50.096;8.448;2024-01-30T04:33:28;14.10;;;5.10;;
31386;SDS011;69978;50.096;8.448;2024-01-30T04:35:54;13.57;;;5.57;;
31386;SDS011;69978;50.096;8.448;2024-01-30T04:38:20;15.23;;;5.32;;
31386;SDS011;69978;50.096;8.448;2024-01-30T04:40:45;13.32;;;4.75;;
31386;SDS011;69978;50.096;8.448;2024-01-30T04:43:11;13.98;;;5.05;;
31386;SDS011;69978;50.096;8.448;2024-01-30T04:45:36;13.75;;;5.78;;
31386;SDS011;69978;50.096;8.448;2024-01-30T04:48:02;15.23;;;5.28;;
31386;SDS011;69978;50.096;8.448;2024-01-30T04:50:28;15.57;;;5.20;;
31386;SDS011;69978;50.096;8.448;2024-01-30T04:52:53;14.25;;;5.10;;
31386;SDS011;69978;50.096;8.448;2024-01-30T04:55:19;14.38;;;5.28;;
31386;SDS011;69978;50.096;8.448;2024-01-30T04:57:44;16.63;;;5.20;;
31386;SDS011;69978;50.096;8.448;2024-01-30T05:00:10;17.38;;;5.45;;
31386;SDS011;69978;50.096;8.448;2024-01-30T05:02:37;15.98;;;5.25;;
31386;SDS011;69978;50.096;8.448;2024-01-30T05:05:03;14.25;;;5.22;;
31386;SDS011;69978;50.096;8.448;2024-01-30T05:07:29;15.38;;;5.18;;
31386;SDS011;69978;50.096;8.448;2024-01-30T05:09:55;15.57;;;5.97;;
31386;SDS011;69978;50.096;8.448;2024-01-30T05:12:21;18.00;;;6.00;;
31386;SDS011;69978;50.096;8.448;2024-01-30T05:14:46;13.48;;;5.65;;
31386;SDS011;69978;50.096;8.448;2024-01-30T05:17:12;24.75;;;6.55;;
31386;SDS011;69978;50.096;8.448;2024-01-30T05:19:38;19.50;;;6.57;;
31386;SDS011;69978;50.096;8.448;2024-01-30T05:22:03;20.25;;;6.05;;
31386;SDS011;69978;50.096;8.448;2024-01-30T05:24:29;21.13;;;6.07;;
31386;SDS011;69978;50.096;8.448;2024-01-30T05:26:55;16.83;;;6.30;;
31386;SDS011;69978;50.096;8.448;2024-01-30T05:29:20;14.98;;;5.88;;
31386;SDS011;69978;50.096;8.448;2024-01-30T05:31:46;16.35;;;6.60;;
31386;SDS011;69978;50.096;8.448;2024-01-30T05:34:12;18.77;;;5.97;;
31386;SDS011;69978;50.096;8.448;2024-01-30T05:36:37;18.10;;;6.05;;
31386;SDS011;69978;50.096;8.448;2024-01-30T05:39:03;15.82;;;6.22;;
31386;SDS011;69978;50.096;8.448;2024-01-30T05:41:29;17.65;;;5.70;;
31386;SDS011;69978;50.096;8.448;2024-01-30T05:43:54;15.75;;;5.60;;
31386;SDS011;69978;50.096;8.448;2024-01-30T05:46:20;19.63;;;6.80;;
31386;SDS011;69978;50.096;8.448;2024-01-30T05:48:45;17.95;;;6.22;;
31386;SDS011;69978;50.096;8.448;2024-01-30T05:51:11;19.17;;;6.10;;
31386;SDS011;69978;50.096;8.448;2024-01-30T05:53:37;16.23;;;5.43;;
31386;SDS011;69978;50.096;8.448;2024-01-30T05:56:03;17.55;;;5.80;;
31386;SDS011;69978;50.096;8.448;2024-01-30T05:58:29;18.05;;;6.32;;
31386;SDS011;69978;50.096;8.448;2024-01-30T06:00:56;15.57;;;6.32;;
31386;SDS011;69978;50.096;8.448;2024-01-30T06:03:22;16.83;;;6.00;;
31386;SDS011;69978;50.096;8.448;2024-01-30T06:05:48;14.75;;;5.10;;
31386;SDS011;69978;50.096;8.448;2024-01-30T06:08:13;18.73;;;6.10;;
31386;SDS011;69978;50.096;8.448;2024-01-30T06:10:39;15.57;;;5.45;;
31386;SDS011;69978;50.096;8.448;2024-01-30T06:13:05;18.38;;;5.65;;
31386;SDS011;69978;50.096;8.448;2024-01-30T06:15:31;12.60;;;5.28;;
31386;SDS011;69978;50.096;8.448;2024-01-30T06:17:57;16.20;;;5.78;;
31386;SDS011;69978;50.096;8.448;2024-01-30T06:20:23;13.43;;;4.78;;
31386;SDS011;69978;50.096;8.448;2024-01-30T06:22:49;13.90;;;5.47;;
31386;SDS011;69978;50.096;8.448;2024-01-30T06:25:14;15.30;;;5.50;;
31386;SDS011;69978;50.096;8.448;2024-01-30T06:27:41;15.15;;;6.13;;
31386;SDS011;69978;50.096;8.448;2024-01-30T06:30:07;15.43;;;5.90;;
31386;SDS011;69978;50.096;8.448;2024-01-30T06:32:33;16.77;;;5.57;;
31386;SDS011;69978;50.096;8.448;2024-01-30T06:35:00;20.73;;;5.50;;
31386;SDS011;69978;50.096;8.448;2024-01-30T06:37:26;18.15;;;6.00;;
31386;SDS011;69978;50.096;8.448;2024-01-30T06:39:52;17.23;;;6.60;;
31386;SDS011;69978;50.096;8.448;2024-01-30T06:42:18;16.33;;;5.85;;
31386;SDS011;69978;50.096;8.448;2024-01-30T06:44:43;17.70;;;6.15;;
31386;SDS011;69978;50.096;8.448;2024-01-30T06:47:09;17.58;;;6.32;;
31386;SDS011;69978;50.096;8.448;2024-01-30T06:49:35;16.48;;;5.85;;
31386;SDS011;69978;50.096;8.448;2024-01-30T06:52:04;17.48;;;6.28;;
31386;SDS011;69978;50.096;8.448;2024-01-30T06:54:30;15.23;;;6.13;;
31386;SDS011;69978;50.096;8.448;2024-01-30T06:56:56;19.92;;;6.43;;
31386;SDS011;69978;50.096;8.448;2024-01-30T06:59:21;17.38;;;6.00;;
31386;SDS011;69978;50.096;8.448;2024-01-30T07:01:47;19.08;;;6.13;;
31386;SDS011;69978;50.096;8.448;2024-01-30T07:04:13;17.48;;;5.95;;
31386;SDS011;69978;50.096;8.448;2024-01-30T07:06:38;16.20;;;6.35;;
31386;SDS011;69978;50.096;8.448;2024-01-30T07:09:04;19.67;;;6.38;;
31386;SDS011;69978;50.096;8.448;2024-01-30T07:11:30;15.00;;;5.85;;
31386;SDS011;69978;50.096;8.448;2024-01-30T07:13:56;17.15;;;6.05;;
31386;SDS011;69978;50.096;8.448;2024-01-30T07:16:21;17.67;;;6.75;;
31386;SDS011;69978;50.096;8.448;2024-01-30T07:18:48;21.80;;;6.35;;
31386;SDS011;69978;50.096;8.448;2024-01-30T07:21:14;20.45;;;6.63;;
31386;SDS011;69978;50.096;8.448;2024-01-30T07:23:40;21.20;;;7.18;;
31386;SDS011;69978;50.096;8.448;2024-01-30T07:26:07;18.77;;;6.90;;
31386;SDS011;69978;50.096;8.448;2024-01-30T07:28:33;20.15;;;7.32;;
31386;SDS011;69978;50.096;8.448;2024-01-30T07:30:59;18.55;;;6.30;;
31386;SDS011;69978;50.096;8.448;2024-01-30T07:33:25;19.92;;;6.47;;
31386;SDS011;69978;50.096;8.448;2024-01-30T07:35:54;15.18;;;6.35;;
31386;SDS011;69978;50.096;8.448;2024-01-30T07:38:19;17.77;;;6.72;;
31386;SDS011;69978;50.096;8.448;2024-01-30T07:40:45;16.63;;;6.13;;
31386;SDS011;69978;50.096;8.448;2024-01-30T07:43:11;24.67;;;7.13;;
31386;SDS011;69978;50.096;8.448;2024-01-30T07:45:36;19.30;;;7.03;;
31386;SDS011;69978;50.096;8.448;2024-01-30T07:48:03;20.02;;;6.95;;
31386;SDS011;69978;50.096;8.448;2024-01-30T07:50:32;19.27;;;7.20;;
31386;SDS011;69978;50.096;8.448;2024-01-30T07:52:59;18.90;;;6.85;;
31386;SDS011;69978;50.096;8.448;2024-01-30T07:55:25;18.77;;;6.75;;
31386;SDS011;69978;50.096;8.448;2024-01-30T07:57:53;22.23;;;7.72;;
31386;SDS011;69978;50.096;8.448;2024-01-30T08:00:20;18.08;;;7.40;;
31386;SDS011;69978;50.096;8.448;2024-01-30T08:02:46;18.90;;;6.85;;
31386;SDS011;69978;50.096;8.448;2024-01-30T08:05:12;20.33;;;7.20;;
31386;SDS011;69978;50.096;8.448;2024-01-30T08:07:40;16.48;;;6.60;;
31386;SDS011;69978;50.096;8.448;2024-01-30T08:10:06;17.73;;;6.47;;
31386;SDS011;69978;50.096;8.448;2024-01-30T08:12:32;20.20;;;7.05;;
31386;SDS011;69978;50.096;8.448;2024-01-30T08:14:58;20.08;;;7.32;;
31386;SDS011;69978;50.096;8.448;2024-01-30T08:17:23;21.67;;;7.40;;
31386;SDS011;69978;50.096;8.448;2024-01-30T08:19:49;19.77;;;6.78;;
31386;SDS011;69978;50.096;8.448;2024-01-30T08:22:14;18.80;;;7.63;;
31386;SDS011;69978;50.096;8.448;2024-01-30T08:24:40;23.10;;;7.75;;
31386;SDS011;69978;50.096;8.448;2024-01-30T08:27:06;27.98;;;8.63;;
31386;SDS011;69978;50.096;8.448;2024-01-30T08:29:35;27.00;;;8.38;;
31386;SDS011;69978;50.096;8.448;2024-01-30T08:32:01;19.98;;;8.05;;
31386;SDS011;69978;50.096;8.448;2024-01-30T08:34:26;21.15;;;7.88;;
31386;SDS011;69978;50.096;8.448;2024-01-30T08:36:52;19.30;;;7.18;;
31386;SDS011;69978;50.096;8.448;2024-01-30T08:39:18;20.50;;;7.43;;
31386;SDS011;69978;50.096;8.448;2024-01-30T08:41:44;22.05;;;7.72;;
31386;SDS011;69978;50.096;8.448;2024-01-30T08:44:09;21.15;;;7.53;;
31386;SDS011;69978;50.096;8.448;2024-01-30T08:46:36;40.78;;;11.40;;
31386;SDS011;69978;50.096;8.448;2024-01-30T08:49:02;45.90;;;12.38;;
31386;SDS011;69978;50.096;8.448;2024-01-30T08:51:29;34.38;;;9.85;;
31386;SDS011;69978;50.096;8.448;2024-01-30T08:53:55;30.27;;;9.55;;
31386;SDS011;69978;50.096;8.448;2024-01-30T08:56:20;28.92;;;8.98;;
31386;SDS011;69978;50.096;8.448;2024-01-30T08:58:46;26.20;;;9.18;;
31386;SDS011;69978;50.096;8.448;2024-01-30T09:01:11;20.75;;;8.10;;
31386;SDS011;69978;50.096;8.448;2024-01-30T09:03:37;26.65;;;10.07;;
31386;SDS011;69978;50.096;8.448;2024-01-30T09:06:10;29.58;;;9.95;;
31386;SDS011;69978;50.096;8.448;2024-01-30T09:08:37;26.00;;;9.65;;
31386;SDS011;69978;50.096;8.448;2024-01-30T09:11:09;18.83;;;8.15;;
31386;SDS011;69978;50.096;8.448;2024-01-30T09:13:39;24.48;;;7.95;;
31386;SDS011;69978;50.096;8.448;2024-01-30T09:16:05;21.10;;;7.82;;
31386;SDS011;69978;50.096;8.448;2024-01-30T09:18:30;21.35;;;8.40;;
31386;SDS011;69978;50.096;8.448;2024-01-30T09:20:56;18.55;;;7.85;;
31386;SDS011;69978;50.096;8.448;2024-01-30T09:23:25;20.23;;;7.40;;
31386;SDS011;69978;50.096;8.448;2024-01-30T09:25:52;18.15;;;7.45;;
31386;SDS011;69978;50.096;8.448;2024-01-30T09:28:20;20.13;;;7.70;;
31386;SDS011;69978;50.096;8.448;2024-01-30T09:30:45;20.35;;;7.90;;
31386;SDS011;69978;50.096;8.448;2024-01-30T09:33:11;20.20;;;8.25;;
31386;SDS011;69978;50.096;8.448;2024-01-30T09:35:36;21.77;;;8.15;;
31386;SDS011;69978;50.096;8.448;2024-01-30T09:38:02;19.02;;;7.70;;
31386;SDS011;69978;50.096;8.448;2024-01-30T09:40:28;24.05;;;8.70;;
31386;SDS011;69978;50.096;8.448;2024-01-30T09:42:53;20.33;;;7.90;;
31386;SDS011;69978;50.096;8.448;2024-01-30T09:45:21;22.63;;;8.73;;
31386;SDS011;69978;50.096;8.448;2024-01-30T09:47:49;21.90;;;8.20;;
31386;SDS011;69978;50.096;8.448;2024-01-30T09:50:15;21.45;;;7.78;;
31386;SDS011;69978;50.096;8.448;2024-01-30T09:52:45;20.83;;;7.90;;
31386;SDS011;69978;50.096;8.448;2024-01-30T09:55:11;20.83;;;8.55;;
31386;SDS011;69978;50.096;8.448;2024-01-30T09:57:37;20.83;;;7.93;;
31386;SDS011;69978;50.096;8.448;2024-01-30T10:00:04;22.77;;;8.60;;
31386;SDS011;69978;50.096;8.448;2024-01-30T10:02:34;20.35;;;8.10;;
31386;SDS011;69978;50.096;8.448;2024-01-30T10:05:01;19.73;;;7.70;;
31386;SDS011;69978;50.096;8.448;2024-01-30T10:07:27;19.90;;;8.00;;
31386;SDS011;69978;50.096;8.448;2024-01-30T10:09:53;23.83;;;8.63;;
31386;SDS011;69978;50.096;8.448;2024-01-30T10:12:21;19.00;;;8.20;;
31386;SDS011;69978;50.096;8.448;2024-01-30T10:14:47;22.90;;;8.25;;
31386;SDS011;69978;50.096;8.448;2024-01-30T10:17:12;21.45;;;8.15;;
31386;SDS011;69978;50.096;8.448;2024-01-30T10:19:39;26.38;;;9.20;;
31386;SDS011;69978;50.096;8.448;2024-01-30T10:22:05;21.00;;;8.40;;
31386;SDS011;69978;50.096;8.448;2024-01-30T10:24:31;23.55;;;8.40;;
31386;SDS011;69978;50.096;8.448;2024-01-30T10:26:58;22.85;;;8.00;;
31386;SDS011;69978;50.096;8.448;2024-01-30T10:29:24;22.08;;;7.85;;
31386;SDS011;69978;50.096;8.448;2024-01-30T10:34:27;24.95;;;8.25;;
31386;SDS011;69978;50.096;8.448;2024-01-30T10:37:09;21.25;;;7.93;;
31386;SDS011;69978;50.096;8.448;2024-01-30T10:39:38;25.10;;;8.20;;
31386;SDS011;69978;50.096;8.448;2024-01-30T10:42:05;22.25;;;9.10;;
31386;SDS011;69978;50.096;8.448;2024-01-30T10:45:32;21.40;;;8.77;;
31386;SDS011;69978;50.096;8.448;2024-01-30T15:02:33;17.00;;;6.03;;
31386;SDS011;69978;50.096;8.448;2024-01-30T15:05:00;17.02;;;6.95;;
31386;SDS011;69978;50.096;8.448;2024-01-30T15:07:25;16.63;;;6.22;;
31386;SDS011;69978;50.096;8.448;2024-01-30T15:09:52;18.58;;;6.55;;
31386;SDS011;69978;50.096;8.448;2024-01-30T15:12:18;16.05;;;5.95;;
31386;SDS011;69978;50.096;8.448;2024-01-30T15:14:43;12.45;;;5.28;;
31386;SDS011;69978;50.096;8.448;2024-01-30T15:17:15;16.73;;;5.93;;
31386;SDS011;69978;50.096;8.448;2024-01-30T15:19:46;18.27;;;5.88;;
31386;SDS011;69978;50.096;8.448;2024-01-30T15:22:12;15.10;;;5.88;;
31386;SDS011;69978;50.096;8.448;2024-01-30T15:24:38;14.65;;;5.38;;
31386;SDS011;69978;50.096;8.448;2024-01-30T15:27:04;13.98;;;6.10;;
31386;SDS011;69978;50.096;8.448;2024-01-30T15:29:30;13.45;;;6.30;;
31386;SDS011;69978;50.096;8.448;2024-01-30T15:31:58;13.32;;;5.97;;
31386;SDS011;69978;50.096;8.448;2024-01-30T15:34:24;16.42;;;5.57;;
31386;SDS011;69978;50.096;8.448;2024-01-30T15:36:49;16.05;;;6.30;;
31386;SDS011;69978;50.096;8.448;2024-01-30T15:39:15;17.15;;;5.57;;
31386;SDS011;69978;50.096;8.448;2024-01-30T15:41:42;12.88;;;5.57;;
31386;SDS011;69978;50.096;8.448;2024-01-30T15:44:08;14.98;;;5.75;;
31386;SDS011;69978;50.096;8.448;2024-01-30T15:46:34;15.90;;;5.55;;
31386;SDS011;69978;50.096;8.448;2024-01-30T15:49:00;12.80;;;5.90;;
31386;SDS011;69978;50.096;8.448;2024-01-30T15:51:26;16.90;;;5.97;;
31386;SDS011;69978;50.096;8.448;2024-01-30T15:53:52;15.60;;;5.78;;
31386;SDS011;69978;50.096;8.448;2024-01-30T15:56:18;17.38;;;5.72;;
31386;SDS011;69978;50.096;8.448;2024-01-30T15:58:47;14.18;;;5.85;;
31386;SDS011;69978;50.096;8.448;2024-01-30T16:01:15;13.63;;;4.90;;
31386;SDS011;69978;50.096;8.448;2024-01-30T16:03:42;16.17;;;5.30;;
31386;SDS011;69978;50.096;8.448;2024-01-30T16:06:09;15.20;;;5.72;;
31386;SDS011;69978;50.096;8.448;2024-01-30T16:08:36;12.73;;;6.00;;
31386;SDS011;69978;50.096;8.448;2024-01-30T16:11:02;28.58;;;8.93;;
31386;SDS011;69978;50.096;8.448;2024-01-30T16:13:27;15.93;;;6.65;;
31386;SDS011;69978;50.096;8.448;2024-01-30T16:15:54;26.40;;;9.55;;
31386;SDS011;69978;50.096;8.448;2024-01-30T16:18:19;18.30;;;7.38;;
31386;SDS011;69978;50.096;8.448;2024-01-30T16:20:45;20.73;;;6.80;;
31386;SDS011;69978;50.096;8.448;2024-01-30T16:23:11;14.57;;;5.95;;
31386;SDS011;69978;50.096;8.448;2024-01-30T16:25:36;19.98;;;7.85;;
31386;SDS011;69978;50.096;8.448;2024-01-30T16:28:02;17.33;;;6.75;;
31386;SDS011;69978;50.096;8.448;2024-01-30T16:30:27;24.02;;;8.75;;
31386;SDS011;69978;50.096;8.448;2024-01-30T16:32:53;21.30;;;7.03;;
31386;SDS011;69978;50.096;8.448;2024-01-30T16:35:19;16.38;;;6.63;;
31386;SDS011;69978;50.096;8.448;2024-01-30T16:37:45;20.30;;;7.10;;
31386;SDS011;69978;50.096;8.448;2024-01-30T16:40:10;17.65;;;6.60;;
31386;SDS011;69978;50.096;8.448;2024-01-30T16:42:37;17.85;;;6.05;;
31386;SDS011;69978;50.096;8.448;2024-01-30T16:45:03;15.15;;;5.95;;
31386;SDS011;69978;50.096;8.448;2024-01-30T16:47:29;18.85;;;7.25;;
31386;SDS011;69978;50.096;8.448;2024-01-30T16:49:55;16.05;;;6.20;;
31386;SDS011;69978;50.096;8.448;2024-01-30T16:52:20;18.00;;;5.72;;
31386;SDS011;69978;50.096;8.448;2024-01-30T16:54:50;15.18;;;5.72;;
31386;SDS011;69978;50.096;8.448;2024-01-30T16:57:17;13.60;;;5.28;;
31386;SDS011;69978;50.096;8.448;2024-01-30T16:59:42;14.00;;;5.47;;
31386;SDS011;69978;50.096;8.448;2024-01-30T17:02:08;11.50;;;4.97;;
31386;SDS011;69978;50.096;8.448;2024-01-30T17:04:33;13.25;;;5.78;;
31386;SDS011;69978;50.096;8.448;2024-01-30T17:06:59;16.20;;;5.22;;
31386;SDS011;69978;50.096;8.448;2024-01-30T17:09:25;13.00;;;5.40;;
31386;SDS011;69978;50.096;8.448;2024-01-30T17:11:50;24.02;;;7.90;;
31386;SDS011;69978;50.096;8.448;2024-01-30T17:14:17;21.33;;;7.65;;
31386;SDS011;69978;50.096;8.448;2024-01-30T17:16:42;14.95;;;6.15;;
31386;SDS011;69978;50.096;8.448;2024-01-30T17:19:10;17.48;;;6.63;;
31386;SDS011;69978;50.096;8.448;2024-01-30T17:21:36;13.73;;;4.97;;
31386;SDS011;69978;50.096;8.448;2024-01-30T17:24:02;11.90;;;5.47;;
31386;SDS011;69978;50.096;8.448;2024-01-30T17:26:28;13.88;;;5.55;;
31386;SDS011;69978;50.096;8.448;2024-01-30T17:28:54;13.35;;;5.40;;
31386;SDS011;69978;50.096;8.448;2024-01-30T17:31:20;15.73;;;5.78;;
31386;SDS011;69978;50.096;8.448;2024-01-30T17:33:46;15.35;;;5.63;;
31386;SDS011;69978;50.096;8.448;2024-01-30T17:36:11;16.20;;;6.07;;
31386;SDS011;69978;50.096;8.448;2024-01-30T17:38:38;14.00;;;5.93;;
31386;SDS011;69978;50.096;8.448;2024-01-30T17:41:04;14.85;;;5.75;;
31386;SDS011;69978;50.096;8.448;2024-01-30T17:43:30;18.48;;;6.03;;
31386;SDS011;69978;50.096;8.448;2024-01-30T17:45:55;14.35;;;5.47;;
31386;SDS011;69978;50.096;8.448;2024-01-30T17:48:21;17.48;;;5.72;;
31386;SDS011;69978;50.096;8.448;2024-01-30T17:50:47;14.75;;;5.82;;
31386;SDS011;69978;50.096;8.448;2024-01-30T17:53:13;15.55;;;5.72;;
31386;SDS011;69978;50.096;8.448;2024-01-30T17:55:40;19.48;;;6.22;;
31386;SDS011;69978;50.096;8.448;2024-01-30T17:58:05;26.63;;;6.97;;
31386;SDS011;69978;50.096;8.448;2024-01-30T18:00:31;21.23;;;6.90;;
31386;SDS011;69978;50.096;8.448;2024-01-30T18:02:57;17.83;;;6.80;;
31386;SDS011;69978;50.096;8.448;2024-01-30T18:05:24;20.90;;;7.47;;
31386;SDS011;69978;50.096;8.448;2024-01-30T18:07:50;18.98;;;7.72;;
31386;SDS011;69978;50.096;8.448;2024-01-30T18:10:15;17.90;;;6.70;;
31386;SDS011;69978;50.096;8.448;2024-01-30T18:12:44;18.02;;;5.97;;
31386;SDS011;69978;50.096;8.448;2024-01-30T18:15:10;14.20;;;6.18;;
31386;SDS011;69978;50.096;8.448;2024-01-30T18:17:36;16.08;;;5.78;;
31386;SDS011;69978;50.096;8.448;2024-01-30T18:20:02;15.13;;;5.32;;
31386;SDS011;69978;50.096;8.448;2024-01-30T18:22:35;13.43;;;5.07;;
31386;SDS011;69978;50.096;8.448;2024-01-30T18:25:06;11.18;;;4.95;;
31386;SDS011;69978;50.096;8.448;2024-01-30T18:27:33;16.27;;;6.10;;
31386;SDS011;69978;50.096;8.448;2024-01-30T18:29:58;14.88;;;5.10;;
31386;SDS011;69978;50.096;8.448;2024-01-30T18:32:24;12.35;;;5.07;;
31386;SDS011;69978;50.096;8.448;2024-01-30T18:34:50;14.50;;;5.43;;
31386;SDS011;69978;50.096;8.448;2024-01-30T18:37:15;10.90;;;5.13;;
31386;SDS011;69978;50.096;8.448;2024-01-30T18:39:41;15.05;;;5.43;;
31386;SDS011;69978;50.096;8.448;2024-01-30T18:42:08;16.00;;;5.15;;
31386;SDS011;69978;50.096;8.448;2024-01-30T18:44:33;13.75;;;5.50;;